首页
METAR-TAF:

METAR-TAF

机场 :

扬斯敦 / Warren, 俄亥俄州, 美国

纬度: 41-15-16N, 经度: 080-40-26W, 海拔: 364米

当前天气观测

该预报发布于34分钟前的15:51 UTC
风速4节,风向
温度 2°C
湿度 69%
气压 1024 hPa
能見度: 16.1公里
多云层高于25000英尺

METAR: KYNG 171551Z 10004KT 10SM BKN250 02/M03 A3025 RMK AO2 SLP255 T00221033

时间: 11:25 (16:25 UTC)

预报

该预报发布于2小时和24分钟前的14:01 UTC
预报有效从17日的 14点(UTC)到 18日的 12点(UTC)
风速3节,风向多变
能見度: 10公里
少量云层高于25000英尺
短暂存在
从 17日的 14点(UTC)到 17日的 16点(UTC)
能見度: 8.0公里
轻雾
从 17日的 1800点(UTC)
风速8节,风向东转东南
能見度: 10公里
多云层高于20000英尺
从 18日的 0300点(UTC)
风速10节,风向东南
能見度: 10公里
阴天层高于5000英尺
从 18日的 0500点(UTC)
风速12节,风向东南,有时为20节阵风
能見度: 9.7公里
阴天层高于4000英尺
小雨
从 18日的 0900点(UTC)
风速12节,风向,有时为20节阵风
能見度: 8.0公里
阴天层高于2500英尺
小雨

TAF: KYNG 171401Z 1714/1812 VRB03KT P6SM FEW250 TEMPO 1714/1716 5SM BR FM171800 12008KT P6SM BKN200 FM180300 13010KT P6SM OVC050 FM180500 14012G20KT 6SM -RA OVC040 FM180900 17012G20KT 5SM -RA OVC025

超过4000个机场的气象观测和天气预报(METAR&TAF报告)。

可查询的气象台以黄色和红色小点在地图上表示。

将鼠标移到小点上方,可查看气象台名称。

然后点击查看天气观测和预报。

如需切换地图:点击带黑十字的绿色按钮放大地图;点击带横线的绿色按钮缩小地图;或者点击绿色箭头查看邻近地区的地图。


METAR-TAF: